Time;durP1;ratioP1;P1;durP2;ratioP2;P2;SDS_P1;SDS_P2;PMS_P1;PMS_P2;Temp;Humidity;BMP_temperature;BMP_pressure;BME280_temperature;BME280_humidity;BME280_pressure;Samples;Min_cycle;Max_cycle;Signal;HPM_P1;HPM_P2
2021/12/01 00:00:55;;;;;;;44.28;28.40;;;9.40;99.90;;;;;;5062139;28;20040;-65
2021/12/01 00:03:22;;;;;;;38.58;27.10;;;9.40;99.90;;;;;;5090972;28;20037;-65
2021/12/01 00:05:48;;;;;;;40.03;26.88;;;9.50;99.90;;;;;;5059712;28;20120;-64
2021/12/01 00:08:14;;;;;;;41.67;28.27;;;9.50;99.90;;;;;;5061809;28;20131;-65
2021/12/01 00:10:41;;;;;;;43.30;29.88;;;9.50;99.90;;;;;;5059614;28;20033;-65
2021/12/01 00:13:10;;;;;;;38.55;27.75;;;9.50;99.90;;;;;;5057366;28;20070;-65
2021/12/01 00:15:36;;;;;;;44.10;27.40;;;9.50;99.90;;;;;;5055236;28;20065;-65
2021/12/01 00:18:02;;;;;;;37.70;25.95;;;9.50;99.90;;;;;;5058839;28;20036;-65
2021/12/01 00:20:28;;;;;;;44.60;27.15;;;9.50;99.90;;;;;;5060809;28;20068;-65
2021/12/01 00:22:55;;;;;;;36.08;25.33;;;9.50;99.90;;;;;;5059949;28;20459;-65
2021/12/01 00:25:23;;;;;;;30.38;24.17;;;9.50;99.90;;;;;;5062593;28;20090;-65
2021/12/01 00:27:50;;;;;;;37.58;25.92;;;9.50;99.90;;;;;;5060011;28;20040;-65
2021/12/01 00:30:16;;;;;;;32.08;25.15;;;9.60;99.90;;;;;;5059706;28;20036;-65
2021/12/01 00:32:42;;;;;;;30.13;22.98;;;9.60;99.90;;;;;;5090780;28;20044;-65
2021/12/01 00:35:09;;;;;;;32.40;23.85;;;9.60;99.90;;;;;;5045057;28;20048;-65
2021/12/01 00:37:36;;;;;;;35.30;23.77;;;9.50;99.90;;;;;;5060357;28;20064;-65
2021/12/01 00:40:03;;;;;;;34.80;23.42;;;9.60;99.90;;;;;;5061378;28;20496;-65
2021/12/01 00:42:29;;;;;;;30.90;22.27;;;9.60;99.90;;;;;;5057988;28;20548;-65
2021/12/01 00:45:07;;;;;;;27.85;20.83;;;9.60;99.90;;;;;;5060708;28;20040;-65
2021/12/01 00:47:43;;;;;;;32.88;20.90;;;9.60;99.90;;;;;;5059924;28;20044;-65
2021/12/01 00:50:17;;;;;;;29.75;20.35;;;9.60;99.90;;;;;;5061440;28;20540;-65
2021/12/01 00:52:43;;;;;;;26.73;19.80;;;9.60;99.90;;;;;;5061077;28;20156;-65
2021/12/01 00:55:09;;;;;;;32.08;19.38;;;9.60;99.90;;;;;;5059962;28;20131;-65
2021/12/01 00:57:36;;;;;;;30.52;19.50;;;9.60;99.90;;;;;;5060282;28;20387;-65
2021/12/01 01:00:05;;;;;;;26.50;18.08;;;9.60;99.90;;;;;;5058758;28;20050;-65
2021/12/01 01:02:31;;;;;;;29.25;18.13;;;9.60;99.90;;;;;;5061296;28;20032;-65
2021/12/01 01:04:56;;;;;;;29.90;18.40;;;9.60;99.90;;;;;;5058914;28;20039;-65
2021/12/01 01:07:22;;;;;;;23.92;17.33;;;9.60;99.90;;;;;;5058710;28;20044;-65
2021/12/01 01:09:48;;;;;;;21.95;16.27;;;9.60;99.90;;;;;;5059383;28;20398;-65
2021/12/01 01:17:45;;;;;;;24.77;16.88;;;9.70;99.90;;;;;;5060589;28;20069;-65
2021/12/01 01:20:12;;;;;;;26.33;16.85;;;9.60;99.90;;;;;;5072423;28;20028;-65
2021/12/01 01:22:40;;;;;;;23.75;15.30;;;9.70;99.90;;;;;;5059488;28;20048;-65
2021/12/01 01:25:08;;;;;;;22.70;15.27;;;9.70;99.90;;;;;;5057579;28;20601;-65
2021/12/01 01:27:34;;;;;;;28.35;18.33;;;9.70;99.90;;;;;;5057476;28;20046;-65
2021/12/01 01:30:01;;;;;;;28.08;15.63;;;9.70;99.90;;;;;;5058451;28;20040;-65
2021/12/01 01:32:26;;;;;;;23.27;14.30;;;9.60;99.90;;;;;;5058579;28;20041;-65
2021/12/01 01:34:52;;;;;;;19.13;14.25;;;9.70;99.90;;;;;;5061604;28;20035;-65
2021/12/01 01:37:18;;;;;;;19.58;11.52;;;9.60;99.90;;;;;;5063310;28;20103;-64
2021/12/01 01:39:45;;;;;;;11.93;8.30;;;9.60;99.90;;;;;;5060103;28;20105;-65
2021/12/01 01:42:11;;;;;;;11.13;9.95;;;9.70;99.90;;;;;;5062265;28;20036;-64
2021/12/01 01:44:36;;;;;;;18.42;11.35;;;9.70;99.90;;;;;;5061980;28;20370;-65
2021/12/01 01:47:02;;;;;;;17.88;11.15;;;9.70;99.90;;;;;;5091666;28;20048;-65
2021/12/01 01:49:43;;;;;;;14.98;9.82;;;9.70;99.90;;;;;;5059255;28;20076;-65
2021/12/01 01:52:09;;;;;;;15.63;9.27;;;9.70;99.90;;;;;;5059209;28;20048;-65
2021/12/01 01:54:35;;;;;;;12.23;9.18;;;9.70;99.90;;;;;;5054495;28;20041;-64
2021/12/01 01:57:00;;;;;;;16.52;9.93;;;9.70;99.90;;;;;;5058531;28;20036;-65
2021/12/01 01:59:26;;;;;;;15.00;9.98;;;9.70;99.90;;;;;;5061500;28;20170;-65
2021/12/01 02:01:55;;;;;;;14.35;8.05;;;9.70;99.90;;;;;;5062562;28;20047;-65
2021/12/01 02:04:22;;;;;;;10.18;7.00;;;9.70;99.90;;;;;;5065116;28;20059;-65
2021/12/01 02:06:49;;;;;;;10.02;7.13;;;9.70;99.90;;;;;;5064045;28;20082;-65
2021/12/01 02:09:19;;;;;;;8.73;6.90;;;9.70;99.90;;;;;;5092926;28;20060;-65
2021/12/01 02:11:45;;;;;;;8.32;6.90;;;9.80;99.90;;;;;;5060792;28;20029;-65
2021/12/01 02:14:11;;;;;;;10.32;7.05;;;9.70;99.90;;;;;;5059927;28;20044;-64
2021/12/01 02:16:37;;;;;;;7.10;6.38;;;9.70;99.90;;;;;;5062791;28;20071;-65
2021/12/01 02:19:03;;;;;;;9.02;6.63;;;9.70;99.90;;;;;;5061720;28;20056;-65
2021/12/01 02:21:30;;;;;;;8.85;6.80;;;9.70;99.90;;;;;;5066320;28;20064;-65
2021/12/01 02:23:59;;;;;;;6.40;5.80;;;9.80;99.90;;;;;;5063377;28;20032;-65
2021/12/01 02:26:26;;;;;;;5.93;5.32;;;9.80;99.90;;;;;;5061902;28;20037;-65
2021/12/01 02:28:56;;;;;;;7.32;5.13;;;9.80;99.90;;;;;;5061176;28;20040;-65
2021/12/01 02:31:33;;;;;;;6.10;4.60;;;9.80;99.90;;;;;;5068623;28;20421;-65
2021/12/01 02:33:58;;;;;;;5.35;4.78;;;9.90;99.90;;;;;;5064311;28;20044;-66
2021/12/01 02:36:24;;;;;;;4.68;3.60;;;9.80;99.90;;;;;;5067650;28;20047;-65
2021/12/01 02:38:50;;;;;;;6.72;4.05;;;9.90;99.90;;;;;;5069473;28;20080;-65
2021/12/01 02:41:16;;;;;;;4.45;3.38;;;9.90;99.90;;;;;;5067108;28;20071;-65
2021/12/01 02:43:44;;;;;;;10.18;3.72;;;9.90;99.90;;;;;;5065323;28;20036;-65
2021/12/01 02:46:10;;;;;;;6.63;2.65;;;10.00;99.90;;;;;;5065756;28;20041;-65
2021/12/01 02:48:41;;;;;;;6.47;2.80;;;10.10;99.90;;;;;;5065874;28;20033;-65
2021/12/01 02:51:08;;;;;;;6.90;2.60;;;10.10;99.90;;;;;;5066269;28;20037;-65
2021/12/01 02:53:34;;;;;;;4.68;3.08;;;10.10;99.90;;;;;;5067250;28;20218;-65
2021/12/01 02:56:02;;;;;;;5.30;2.72;;;10.10;99.90;;;;;;5065206;28;20117;-65
2021/12/01 02:58:31;;;;;;;6.10;3.70;;;10.00;99.90;;;;;;5061319;28;20522;-65
2021/12/01 03:00:59;;;;;;;3.88;3.22;;;10.00;99.90;;;;;;5067000;28;20070;-65
2021/12/01 03:03:27;;;;;;;4.22;3.67;;;10.00;99.90;;;;;;5063345;28;20049;-65
2021/12/01 03:05:54;;;;;;;4.18;3.88;;;10.00;99.90;;;;;;5064571;28;20043;-65
2021/12/01 03:08:20;;;;;;;4.40;3.72;;;10.00;99.90;;;;;;5053588;28;20043;-65
2021/12/01 03:10:51;;;;;;;4.75;3.88;;;10.00;99.90;;;;;;5064776;28;20170;-65
2021/12/01 03:13:19;;;;;;;3.70;3.40;;;10.00;99.90;;;;;;5065294;28;20059;-65
2021/12/01 03:15:44;;;;;;;7.00;3.53;;;10.00;99.90;;;;;;5064816;28;20131;-65
2021/12/01 03:18:11;;;;;;;5.40;3.08;;;10.00;99.90;;;;;;5068143;28;20139;-65
2021/12/01 03:20:37;;;;;;;4.38;2.55;;;10.00;99.90;;;;;;5095203;28;21642;-65
2021/12/01 03:23:04;;;;;;;4.10;1.92;;;10.00;99.90;;;;;;5095148;28;20116;-66
2021/12/01 03:25:30;;;;;;;7.53;1.80;;;10.00;99.90;;;;;;5051419;28;20036;-66
2021/12/01 03:27:55;;;;;;;11.45;2.10;;;10.00;99.90;;;;;;5065378;28;20454;-66
2021/12/01 03:30:22;;;;;;;8.45;1.73;;;10.00;99.90;;;;;;5065792;28;20032;-65
2021/12/01 03:32:49;;;;;;;8.55;2.15;;;10.00;99.90;;;;;;5066444;28;20075;-66
2021/12/01 03:35:16;;;;;;;7.18;1.35;;;10.00;99.90;;;;;;5065812;28;20169;-66
2021/12/01 03:37:44;;;;;;;6.80;1.92;;;10.00;99.90;;;;;;5064009;28;20158;-66
2021/12/01 03:40:12;;;;;;;7.82;1.45;;;9.90;99.90;;;;;;5060851;28;20670;-66
2021/12/01 03:42:38;;;;;;;10.63;1.63;;;10.00;99.90;;;;;;5062668;28;20040;-66
2021/12/01 03:45:06;;;;;;;12.85;1.90;;;9.90;99.90;;;;;;5066132;28;20039;-65
2021/12/01 03:47:32;;;;;;;11.20;2.10;;;9.90;99.90;;;;;;5062163;28;20051;-65
2021/12/01 03:49:58;;;;;;;7.13;1.40;;;9.90;99.90;;;;;;5064051;28;20552;-66
2021/12/01 03:52:24;;;;;;;9.80;1.83;;;9.90;99.90;;;;;;5065219;28;20045;-66
2021/12/01 03:54:51;;;;;;;13.80;2.40;;;9.90;99.90;;;;;;5062751;28;20059;-66
2021/12/01 03:57:17;;;;;;;9.27;1.42;;;9.90;99.90;;;;;;5091486;28;20036;-65
2021/12/01 03:59:44;;;;;;;10.20;2.25;;;9.90;99.90;;;;;;5067753;28;20048;-66
2021/12/01 04:02:09;;;;;;;8.57;2.00;;;9.90;99.90;;;;;;5060996;28;20033;-66
2021/12/01 04:04:36;;;;;;;4.65;1.58;;;9.90;99.90;;;;;;5061259;28;20029;-66
2021/12/01 04:07:01;;;;;;;7.32;1.98;;;9.90;99.90;;;;;;5066306;28;20067;-66
2021/12/01 04:09:28;;;;;;;7.60;2.10;;;9.90;99.90;;;;;;5066341;28;20113;-66
2021/12/01 04:11:53;;;;;;;5.38;2.38;;;9.90;99.90;;;;;;5066321;28;20041;-66
2021/12/01 04:14:19;;;;;;;6.75;3.03;;;9.80;99.90;;;;;;5064607;28;20402;-66
2021/12/01 04:16:46;;;;;;;5.75;2.58;;;9.80;99.90;;;;;;5062349;28;20115;-65
2021/12/01 04:19:11;;;;;;;4.13;2.22;;;9.80;99.90;;;;;;5061653;28;20052;-65
2021/12/01 04:21:37;;;;;;;4.03;2.70;;;9.80;99.90;;;;;;5062990;28;20047;-65
2021/12/01 04:24:03;;;;;;;4.43;2.28;;;9.80;99.90;;;;;;5067245;28;20040;-65
2021/12/01 04:26:32;;;;;;;5.40;2.78;;;9.80;99.90;;;;;;5066914;28;20029;-66
2021/12/01 04:28:58;;;;;;;5.45;2.80;;;9.80;99.90;;;;;;5064956;28;20097;-63
2021/12/01 04:31:24;;;;;;;3.20;2.17;;;9.80;99.90;;;;;;5059121;28;20048;-63
2021/12/01 04:33:50;;;;;;;2.85;2.15;;;9.80;99.90;;;;;;5060798;28;20045;-63
2021/12/01 04:36:17;;;;;;;2.75;2.38;;;9.80;99.90;;;;;;5063232;28;20048;-63
2021/12/01 04:38:43;;;;;;;2.55;2.35;;;9.80;99.90;;;;;;5059867;28;20050;-63
2021/12/01 04:41:12;;;;;;;5.63;2.88;;;9.80;99.90;;;;;;5063758;28;20040;-63
2021/12/01 04:43:38;;;;;;;4.28;2.42;;;9.80;99.90;;;;;;5063391;28;20690;-64
2021/12/01 04:46:04;;;;;;;3.28;1.80;;;9.80;99.90;;;;;;5065005;28;20043;-64
2021/12/01 04:48:31;;;;;;;9.95;2.20;;;9.80;99.90;;;;;;5063020;28;20041;-63
2021/12/01 04:50:56;;;;;;;2.47;1.77;;;9.80;99.90;;;;;;5062887;28;20052;-63
2021/12/01 04:53:25;;;;;;;4.32;1.80;;;9.80;99.90;;;;;;5064458;28;20043;-63
2021/12/01 04:55:52;;;;;;;2.40;1.67;;;9.80;99.90;;;;;;5060279;28;20048;-64
2021/12/01 04:58:17;;;;;;;2.47;1.65;;;9.70;99.90;;;;;;5067828;28;20080;-64
2021/12/01 05:00:43;;;;;;;2.08;1.00;;;9.70;99.90;;;;;;5063348;28;20064;-63
2021/12/01 05:03:08;;;;;;;2.55;1.67;;;9.70;99.90;;;;;;5063068;28;20047;-63
2021/12/01 05:05:35;;;;;;;1.52;1.40;;;9.80;99.90;;;;;;5062644;28;20510;-63
2021/12/01 05:08:01;;;;;;;3.78;2.20;;;9.70;99.90;;;;;;5061732;28;20044;-63
2021/12/01 05:10:27;;;;;;;1.92;1.63;;;9.70;99.90;;;;;;5063133;28;20052;-63
2021/12/01 05:12:52;;;;;;;2.22;1.42;;;9.60;99.90;;;;;;5095157;28;20181;-64
2021/12/01 05:15:18;;;;;;;2.90;1.52;;;9.60;99.90;;;;;;5066294;28;20048;-64
2021/12/01 05:17:44;;;;;;;1.35;1.25;;;9.60;99.90;;;;;;5059247;28;20094;-63
2021/12/01 05:20:11;;;;;;;1.60;1.15;;;9.60;99.90;;;;;;5055849;28;20068;-63
2021/12/01 05:22:38;;;;;;;1.45;1.35;;;9.60;99.90;;;;;;5059547;28;20137;-64
2021/12/01 05:25:04;;;;;;;2.03;1.33;;;9.60;99.90;;;;;;5061251;28;20578;-63
2021/12/01 05:27:30;;;;;;;1.90;1.35;;;9.60;99.90;;;;;;5058938;28;20123;-64
2021/12/01 05:29:55;;;;;;;1.90;1.80;;;9.60;99.90;;;;;;5060725;28;20139;-64
2021/12/01 05:32:21;;;;;;;1.92;1.67;;;9.60;99.90;;;;;;5062430;28;20390;-64
2021/12/01 05:34:47;;;;;;;1.63;1.52;;;9.60;99.90;;;;;;5064515;28;20355;-64
2021/12/01 05:37:13;;;;;;;2.10;2.00;;;9.50;99.90;;;;;;5063039;28;20947;-63
2021/12/01 05:39:41;;;;;;;1.75;1.65;;;9.60;99.90;;;;;;5064147;28;20130;-63
2021/12/01 05:42:07;;;;;;;2.25;2.10;;;9.60;99.90;;;;;;5063552;28;20436;-63
2021/12/01 05:44:34;;;;;;;2.13;1.90;;;9.50;99.90;;;;;;5063568;28;20162;-63
2021/12/01 05:47:01;;;;;;;2.10;1.38;;;9.60;99.90;;;;;;5062901;28;20045;-63
2021/12/01 05:49:26;;;;;;;1.48;1.35;;;9.50;99.90;;;;;;5059533;28;20554;-63
2021/12/01 05:51:52;;;;;;;2.92;2.08;;;9.50;99.90;;;;;;5067048;28;20173;-63
2021/12/01 05:54:18;;;;;;;1.70;1.60;;;9.50;99.90;;;;;;5066388;28;20036;-63
2021/12/01 05:56:44;;;;;;;1.92;1.80;;;9.50;99.90;;;;;;5065416;28;20044;-66
2021/12/01 05:59:10;;;;;;;2.25;2.05;;;9.40;99.90;;;;;;5063598;28;20049;-66
2021/12/01 06:01:36;;;;;;;1.85;1.70;;;9.40;99.90;;;;;;5064580;28;20044;-66
2021/12/01 06:04:02;;;;;;;3.05;1.98;;;9.40;99.90;;;;;;5066056;28;20118;-66
2021/12/01 06:06:28;;;;;;;2.00;1.65;;;9.40;99.90;;;;;;5064817;28;20039;-66
2021/12/01 06:08:55;;;;;;;2.38;2.17;;;9.40;99.90;;;;;;5064697;28;20040;-65
2021/12/01 06:11:22;;;;;;;1.95;1.85;;;9.30;99.90;;;;;;5059732;28;20045;-66
2021/12/01 06:13:51;;;;;;;1.92;1.75;;;9.30;99.90;;;;;;5062109;28;20205;-66
2021/12/01 06:16:22;;;;;;;1.90;1.80;;;9.30;99.90;;;;;;5059425;28;20410;-66
2021/12/01 06:18:49;;;;;;;2.20;2.00;;;9.30;99.90;;;;;;5090211;28;20033;-66
2021/12/01 06:21:16;;;;;;;1.30;1.20;;;9.20;99.90;;;;;;5062027;28;20043;-66
2021/12/01 06:23:42;;;;;;;3.33;1.23;;;9.20;99.90;;;;;;5062305;28;20032;-66
2021/12/01 06:26:08;;;;;;;1.40;1.25;;;9.20;99.90;;;;;;5063910;28;20489;-66
2021/12/01 06:28:37;;;;;;;1.00;0.70;;;9.20;99.90;;;;;;5060976;28;20044;-66
2021/12/01 06:31:04;;;;;;;0.90;0.80;;;9.20;99.90;;;;;;5062254;28;20052;-66
2021/12/01 06:33:30;;;;;;;0.73;0.70;;;9.20;99.90;;;;;;5062441;28;20044;-65
2021/12/01 06:35:56;;;;;;;1.17;0.80;;;9.20;99.90;;;;;;5062744;28;20405;-66
2021/12/01 06:38:21;;;;;;;1.25;0.63;;;9.20;99.90;;;;;;5095047;28;20130;-66
2021/12/01 06:40:48;;;;;;;1.60;0.90;;;9.10;99.90;;;;;;5061019;28;20028;-66
2021/12/01 06:43:15;;;;;;;1.20;0.68;;;9.10;99.90;;;;;;5064908;28;20044;-66
2021/12/01 06:45:40;;;;;;;0.75;0.75;;;9.10;99.90;;;;;;5059783;28;20037;-66
2021/12/01 06:48:06;;;;;;;0.90;0.73;;;9.10;99.90;;;;;;5063047;28;20478;-65
2021/12/01 06:50:33;;;;;;;1.60;0.80;;;9.10;99.90;;;;;;5059803;28;20052;-66
2021/12/01 06:52:59;;;;;;;0.80;0.77;;;9.00;99.90;;;;;;5064043;28;20044;-66
2021/12/01 06:55:25;;;;;;;0.90;0.82;;;9.10;99.90;;;;;;5062405;28;20044;-65
2021/12/01 06:57:51;;;;;;;0.65;0.60;;;9.00;99.90;;;;;;5063242;28;20056;-65
2021/12/01 07:00:18;;;;;;;0.80;0.80;;;9.00;99.90;;;;;;5062561;28;20147;-66
2021/12/01 07:02:44;;;;;;;1.30;0.60;;;9.00;99.90;;;;;;5061900;28;20074;-65
2021/12/01 07:05:10;;;;;;;1.63;0.90;;;9.00;99.90;;;;;;5062215;28;20494;-66
2021/12/01 07:07:37;;;;;;;1.35;0.90;;;9.00;99.90;;;;;;5060276;28;20047;-65
2021/12/01 07:10:09;;;;;;;0.73;0.60;;;9.00;99.90;;;;;;5061457;28;20036;-66
2021/12/01 07:12:35;;;;;;;0.98;0.70;;;9.00;99.90;;;;;;5061363;28;20048;-66
2021/12/01 07:15:02;;;;;;;1.20;0.93;;;8.90;99.90;;;;;;5060846;28;20068;-66
2021/12/01 07:17:28;;;;;;;1.38;0.93;;;8.90;99.90;;;;;;5061220;28;20123;-66
2021/12/01 07:19:53;;;;;;;1.65;0.95;;;9.00;99.90;;;;;;5064231;28;20143;-65
2021/12/01 07:22:19;;;;;;;1.20;1.10;;;8.90;99.90;;;;;;5061891;28;20044;-66
2021/12/01 07:24:46;;;;;;;1.20;1.10;;;9.00;99.90;;;;;;5059672;28;20580;-65
2021/12/01 07:27:12;;;;;;;1.27;1.17;;;9.00;99.90;;;;;;5060691;28;20867;-66
2021/12/01 07:29:37;;;;;;;3.58;1.38;;;9.00;99.90;;;;;;5091468;28;20045;-65
2021/12/01 07:32:04;;;;;;;1.40;1.30;;;9.00;99.90;;;;;;5057685;28;20067;-65
2021/12/01 07:34:30;;;;;;;2.78;1.80;;;8.90;99.90;;;;;;5090660;28;20120;-66
2021/12/01 07:36:55;;;;;;;3.08;2.38;;;9.00;99.90;;;;;;5058695;28;20036;-66
2021/12/01 07:39:21;;;;;;;2.20;2.00;;;9.00;99.90;;;;;;5059526;28;20048;-66
2021/12/01 07:41:48;;;;;;;2.20;2.00;;;9.10;99.90;;;;;;5044583;28;20086;-65
2021/12/01 07:44:14;;;;;;;2.58;2.38;;;9.00;99.90;;;;;;5060291;28;20049;-66
2021/12/01 07:46:40;;;;;;;2.83;2.60;;;9.00;99.90;;;;;;5092421;28;20032;-65
2021/12/01 07:49:06;;;;;;;2.92;2.72;;;9.00;99.90;;;;;;5060654;28;20485;-66
2021/12/01 07:51:33;;;;;;;3.25;2.95;;;9.00;99.90;;;;;;5059236;28;20044;-65
2021/12/01 07:53:58;;;;;;;4.25;3.10;;;9.00;99.90;;;;;;5057820;28;20045;-65
2021/12/01 07:56:39;;;;;;;3.20;2.83;;;9.00;99.90;;;;;;5060938;28;20052;-65
2021/12/01 07:59:05;;;;;;;3.80;3.50;;;9.00;99.90;;;;;;5059986;28;20668;-66
2021/12/01 08:01:31;;;;;;;5.25;3.63;;;9.10;99.90;;;;;;5091141;28;20397;-65
2021/12/01 08:03:57;;;;;;;4.75;2.85;;;9.10;99.90;;;;;;5074023;28;20045;-65
2021/12/01 08:06:23;;;;;;;3.13;2.55;;;9.10;99.90;;;;;;5059940;28;20044;-65
2021/12/01 08:08:49;;;;;;;3.35;3.03;;;9.10;99.90;;;;;;5057129;28;20047;-65
2021/12/01 08:11:15;;;;;;;2.63;2.42;;;9.20;99.90;;;;;;5055834;28;20044;-66
2021/12/01 08:13:40;;;;;;;2.65;2.45;;;9.10;99.90;;;;;;5065805;28;20040;-66
2021/12/01 08:16:06;;;;;;;3.90;2.50;;;9.20;99.90;;;;;;5090335;28;20098;-65
2021/12/01 08:18:32;;;;;;;3.58;2.55;;;9.20;99.90;;;;;;5060680;28;20091;-65
2021/12/01 08:20:58;;;;;;;4.13;2.55;;;9.20;99.90;;;;;;5045911;28;20048;-65
2021/12/01 08:23:23;;;;;;;2.60;2.40;;;9.30;99.90;;;;;;5056631;28;20036;-65
2021/12/01 08:25:49;;;;;;;3.58;2.13;;;9.30;99.90;;;;;;5057666;28;20041;-65
2021/12/01 08:28:15;;;;;;;6.30;2.42;;;9.30;99.90;;;;;;5057586;28;20088;-65
2021/12/01 08:30:41;;;;;;;6.18;2.42;;;9.30;99.90;;;;;;5058929;28;20045;-65
2021/12/01 08:33:07;;;;;;;3.50;2.30;;;9.30;99.90;;;;;;5059331;28;20059;-65
2021/12/01 08:35:32;;;;;;;3.83;2.58;;;9.30;99.90;;;;;;5089451;28;20105;-65
2021/12/01 08:37:58;;;;;;;3.30;2.28;;;9.30;99.90;;;;;;5060420;28;20466;-65
2021/12/01 08:40:24;;;;;;;3.78;2.22;;;9.30;99.90;;;;;;5057374;28;20056;-65
2021/12/01 08:42:50;;;;;;;4.85;2.63;;;9.30;99.90;;;;;;5090633;28;20045;-65
2021/12/01 08:45:17;;;;;;;3.92;1.50;;;9.30;99.90;;;;;;5091664;28;20092;-65
2021/12/01 08:47:43;;;;;;;4.47;0.85;;;9.20;99.90;;;;;;5087894;28;20053;-65
2021/12/01 08:50:10;;;;;;;10.32;1.05;;;9.20;99.90;;;;;;5057546;28;20059;-65
2021/12/01 08:52:36;;;;;;;6.20;0.85;;;9.20;99.90;;;;;;5090949;28;20041;-65
2021/12/01 08:55:03;;;;;;;8.30;1.50;;;9.20;99.90;;;;;;5060330;28;20043;-65
2021/12/01 08:57:29;;;;;;;12.55;1.77;;;9.20;99.90;;;;;;5062012;28;20573;-65
2021/12/01 08:59:55;;;;;;;11.55;0.80;;;9.20;99.90;;;;;;5059485;28;20122;-65
2021/12/01 09:02:20;;;;;;;8.40;0.85;;;9.20;99.90;;;;;;5060247;28;20060;-65
2021/12/01 09:04:50;;;;;;;9.80;1.42;;;9.20;99.90;;;;;;5059891;28;20452;-65
2021/12/01 09:07:17;;;;;;;10.20;1.40;;;9.20;99.90;;;;;;5092043;28;20045;-65
2021/12/01 09:09:43;;;;;;;6.10;0.82;;;9.20;99.90;;;;;;5056826;28;20433;-65
2021/12/01 09:12:08;;;;;;;8.63;1.55;;;9.30;99.90;;;;;;5056704;28;20128;-65
2021/12/01 09:14:34;;;;;;;9.70;1.30;;;9.40;99.90;;;;;;5059141;28;20406;-66
2021/12/01 09:17:00;;;;;;;10.18;1.40;;;9.40;99.90;;;;;;5091216;28;20036;-65
2021/12/01 09:19:26;;;;;;;11.85;1.08;;;9.30;99.90;;;;;;5060811;28;20122;-65
2021/12/01 09:21:52;;;;;;;9.07;1.25;;;9.30;99.90;;;;;;5058043;28;20040;-65
2021/12/01 09:24:20;;;;;;;16.30;2.65;;;9.30;99.90;;;;;;5053449;28;20836;-65
2021/12/01 09:26:48;;;;;;;8.98;1.00;;;9.40;99.90;;;;;;5056415;28;20695;-65
2021/12/01 09:29:13;;;;;;;8.18;1.15;;;9.30;99.90;;;;;;5056647;28;20040;-65
2021/12/01 09:31:39;;;;;;;8.13;1.38;;;9.30;99.90;;;;;;5068023;28;20986;-65
2021/12/01 09:34:05;;;;;;;12.30;1.45;;;9.30;99.90;;;;;;5053327;28;20477;-65
2021/12/01 09:36:31;;;;;;;10.25;1.30;;;9.30;99.90;;;;;;5054961;28;20495;-65
2021/12/01 09:38:57;;;;;;;13.38;1.15;;;9.20;99.90;;;;;;5054491;28;20052;-65
2021/12/01 09:41:24;;;;;;;8.52;1.00;;;9.30;99.90;;;;;;5056164;28;20043;-65
2021/12/01 09:43:50;;;;;;;8.75;1.38;;;9.10;99.90;;;;;;5057540;28;20079;-65
2021/12/01 09:46:17;;;;;;;11.80;1.65;;;9.10;99.90;;;;;;5055502;28;20047;-65
2021/12/01 09:48:43;;;;;;;10.18;1.10;;;9.00;99.90;;;;;;5057421;28;20040;-66
2021/12/01 09:51:10;;;;;;;14.23;1.10;;;9.10;99.90;;;;;;5059157;28;20051;-65
2021/12/01 09:53:36;;;;;;;6.80;0.85;;;9.00;99.90;;;;;;5058853;28;20058;-65
2021/12/01 09:56:02;;;;;;;9.00;0.70;;;9.00;99.90;;;;;;5059083;28;20044;-65
2021/12/01 09:58:31;;;;;;;10.35;1.02;;;8.90;99.90;;;;;;5057527;28;20037;-65
2021/12/01 10:01:04;;;;;;;9.68;1.35;;;8.90;99.90;;;;;;5058202;28;20040;-65
2021/12/01 10:03:30;;;;;;;7.75;1.48;;;9.00;99.90;;;;;;5057719;28;20052;-65
2021/12/01 10:08:32;;;;;;;11.32;1.63;;;9.00;99.90;;;;;;5057993;28;20070;-65
2021/12/01 10:11:02;;;;;;;8.40;1.63;;;9.00;99.90;;;;;;5038843;28;20045;-65
2021/12/01 10:13:33;;;;;;;6.95;1.08;;;9.00;99.90;;;;;;5073800;28;20053;-65
2021/12/01 10:16:02;;;;;;;10.95;1.17;;;9.00;99.90;;;;;;5057596;28;20040;-65
2021/12/01 10:18:33;;;;;;;14.75;1.70;;;9.00;99.90;;;;;;5056689;28;20582;-65
2021/12/01 10:21:09;;;;;;;14.10;1.40;;;9.00;99.90;;;;;;5062418;28;20041;-65
2021/12/01 10:23:37;;;;;;;14.48;1.00;;;9.00;99.90;;;;;;5060935;28;20132;-65
2021/12/01 10:26:17;;;;;;;11.35;1.50;;;9.10;99.90;;;;;;5061678;28;20355;-65
2021/12/01 10:28:47;;;;;;;10.52;1.20;;;9.00;99.90;;;;;;5062244;28;20045;-65
2021/12/01 10:31:15;;;;;;;11.77;1.50;;;9.00;99.90;;;;;;5059021;28;20509;-65
2021/12/01 10:33:41;;;;;;;9.63;1.00;;;9.00;99.90;;;;;;5043670;28;20115;-64
2021/12/01 10:36:09;;;;;;;11.68;1.20;;;9.00;99.90;;;;;;5062095;28;20055;-65
2021/12/01 10:38:39;;;;;;;9.52;1.17;;;8.90;99.90;;;;;;5091991;28;20430;-65
2021/12/01 10:41:09;;;;;;;7.22;1.13;;;8.90;99.90;;;;;;5093073;28;20055;-65
2021/12/01 10:43:44;;;;;;;10.05;1.20;;;9.00;99.90;;;;;;5060233;28;20067;-65
2021/12/01 10:46:17;;;;;;;11.60;1.92;;;9.10;99.90;;;;;;5062462;28;20044;-65
2021/12/01 10:49:03;;;;;;;11.48;1.95;;;9.10;99.90;;;;;;5061440;28;20040;-65
2021/12/01 10:51:37;;;;;;;14.40;1.55;;;9.10;99.90;;;;;;5060872;28;20107;-65
2021/12/01 10:54:04;;;;;;;6.90;1.35;;;9.10;99.90;;;;;;5074384;28;20071;-65
2021/12/01 10:56:30;;;;;;;13.38;1.67;;;9.10;99.90;;;;;;5062049;28;20145;-65
2021/12/01 10:59:09;;;;;;;9.45;1.73;;;9.10;99.90;;;;;;5062547;28;20114;-65
2021/12/01 11:01:37;;;;;;;10.50;1.65;;;9.10;99.90;;;;;;5058222;28;20433;-65
2021/12/01 11:04:02;;;;;;;10.88;1.38;;;9.10;99.90;;;;;;5061855;28;20083;-65
2021/12/01 11:06:33;;;;;;;8.18;1.20;;;9.10;99.90;;;;;;5061654;28;20060;-65
2021/12/01 11:09:00;;;;;;;15.43;2.20;;;9.00;99.90;;;;;;5061637;28;20639;-65
2021/12/01 11:11:41;;;;;;;14.60;1.75;;;9.00;99.90;;;;;;5059807;28;20044;-64
2021/12/01 11:14:16;;;;;;;14.82;1.77;;;9.00;99.90;;;;;;5092835;28;20040;-65
2021/12/01 11:16:43;;;;;;;9.75;1.55;;;9.00;99.90;;;;;;5058158;28;20040;-65
2021/12/01 11:19:11;;;;;;;13.50;2.47;;;9.00;99.90;;;;;;5059499;28;20592;-65
2021/12/01 11:21:38;;;;;;;14.55;1.70;;;9.00;99.90;;;;;;5060010;28;20043;-65
2021/12/01 11:24:11;;;;;;;15.52;2.22;;;9.00;99.90;;;;;;5060071;28;20114;-65
2021/12/01 11:26:41;;;;;;;17.27;2.00;;;9.00;99.90;;;;;;5058555;28;20049;-65
2021/12/01 11:29:11;;;;;;;16.30;2.00;;;9.00;99.90;;;;;;5057557;28;20055;-65
2021/12/01 11:31:45;;;;;;;14.80;1.98;;;9.00;99.90;;;;;;5054443;28;20048;-65
2021/12/01 11:34:15;;;;;;;12.38;1.67;;;8.90;99.90;;;;;;5058371;28;20055;-65
2021/12/01 11:36:47;;;;;;;16.13;2.17;;;8.90;99.90;;;;;;5057422;28;20093;-65
2021/12/01 11:39:21;;;;;;;22.38;2.90;;;9.00;99.90;;;;;;5058534;28;20063;-65
2021/12/01 11:41:49;;;;;;;12.05;1.75;;;9.00;99.90;;;;;;5074068;28;20124;-65
2021/12/01 11:44:17;;;;;;;15.30;2.30;;;8.90;99.90;;;;;;5058784;28;20033;-65
2021/12/01 11:46:44;;;;;;;16.70;2.97;;;9.00;99.90;;;;;;5060066;28;20389;-65
2021/12/01 11:49:15;;;;;;;11.85;2.08;;;9.00;99.90;;;;;;5056387;28;20110;-65
2021/12/01 11:51:48;;;;;;;16.48;2.33;;;8.90;99.90;;;;;;5059963;28;20040;-65
2021/12/01 11:54:16;;;;;;;19.75;3.08;;;8.90;99.90;;;;;;5061072;28;20048;-65
2021/12/01 11:56:53;;;;;;;17.67;2.60;;;8.80;99.90;;;;;;5058798;28;20043;-65
2021/12/01 11:59:25;;;;;;;17.80;2.35;;;8.80;99.90;;;;;;5057979;28;21309;-65
2021/12/01 12:01:59;;;;;;;14.65;2.38;;;8.70;99.90;;;;;;5058990;28;20067;-64
2021/12/01 12:04:28;;;;;;;16.58;2.47;;;8.70;99.90;;;;;;5058166;28;20049;-65
2021/12/01 12:07:06;;;;;;;18.60;2.80;;;8.60;99.90;;;;;;5058568;28;20045;-65
2021/12/01 12:09:32;;;;;;;16.67;3.17;;;8.60;99.90;;;;;;5057967;28;20087;-64
2021/12/01 12:12:02;;;;;;;18.85;2.70;;;8.60;99.90;;;;;;5058752;28;20028;-65
2021/12/01 12:14:45;;;;;;;17.70;2.33;;;8.60;99.90;;;;;;5058335;28;20518;-64
2021/12/01 12:17:12;;;;;;;17.55;2.95;;;8.50;99.90;;;;;;5088872;28;20045;-65
2021/12/01 12:19:55;;;;;;;22.52;3.70;;;8.50;99.90;;;;;;5057022;28;20402;-65
2021/12/01 12:22:31;;;;;;;24.92;3.08;;;8.60;99.90;;;;;;5056337;28;20040;-65
2021/12/01 12:24:57;;;;;;;21.65;2.88;;;8.60;99.90;;;;;;5059034;28;20036;-65
2021/12/01 12:27:41;;;;;;;28.88;3.97;;;8.60;99.90;;;;;;5059301;28;20493;-65
2021/12/01 12:30:12;;;;;;;26.40;4.43;;;8.60;99.90;;;;;;5059059;28;20043;-65
2021/12/01 12:32:40;;;;;;;15.88;2.55;;;8.60;99.90;;;;;;5058848;28;20063;-65
2021/12/01 12:35:12;;;;;;;19.90;2.78;;;8.70;99.90;;;;;;5088535;28;20048;-66
2021/12/01 12:37:38;;;;;;;21.25;3.38;;;8.60;99.90;;;;;;5059037;28;20413;-65
2021/12/01 12:40:23;;;;;;;15.38;2.55;;;8.60;99.90;;;;;;5056704;28;20094;-65
2021/12/01 12:43:10;;;;;;;23.77;3.42;;;8.50;99.90;;;;;;5058947;28;20037;-65
2021/12/01 12:45:40;;;;;;;26.92;3.97;;;8.40;99.90;;;;;;5058631;28;20033;-66
2021/12/01 12:48:28;;;;;;;16.42;3.80;;;8.40;99.90;;;;;;5058792;28;20494;-64
2021/12/01 12:51:32;;;;;;;23.67;2.97;;;8.30;99.90;;;;;;5060385;28;20036;-65
2021/12/01 12:54:08;;;;;;;12.80;2.35;;;8.20;99.90;;;;;;5049104;28;20044;-65
2021/12/01 12:56:42;;;;;;;22.33;3.03;;;8.30;99.90;;;;;;5033528;28;20045;-65
2021/12/01 12:59:27;;;;;;;18.77;2.17;;;8.30;99.90;;;;;;5045402;28;20061;-65
2021/12/01 13:02:09;;;;;;;15.75;2.78;;;8.30;99.90;;;;;;5057730;28;20051;-65